sensor_id;sensor_type;location;lat;lon;timestamp;temperature;humidity
68511;SHT31;55512;50.102;19.958;2023-09-19T00:00:16;20.72;61.61
68511;SHT31;55512;50.102;19.958;2023-09-19T00:02:55;20.73;61.68
68511;SHT31;55512;50.102;19.958;2023-09-19T00:05:25;20.75;61.70
68511;SHT31;55512;50.102;19.958;2023-09-19T00:07:55;20.78;61.68
68511;SHT31;55512;50.102;19.958;2023-09-19T00:10:25;20.78;61.64
68511;SHT31;55512;50.102;19.958;2023-09-19T00:12:55;20.78;61.64
68511;SHT31;55512;50.102;19.958;2023-09-19T00:15:23;20.79;61.69
68511;SHT31;55512;50.102;19.958;2023-09-19T00:17:53;20.81;61.68
68511;SHT31;55512;50.102;19.958;2023-09-19T00:20:19;20.83;61.62
68511;SHT31;55512;50.102;19.958;2023-09-19T00:22:47;20.83;61.59
68511;SHT31;55512;50.102;19.958;2023-09-19T00:25:14;20.84;61.57
68511;SHT31;55512;50.102;19.958;2023-09-19T00:27:41;20.83;61.72
68511;SHT31;55512;50.102;19.958;2023-09-19T00:30:10;20.83;61.80
68511;SHT31;55512;50.102;19.958;2023-09-19T00:32:49;20.83;61.83
68511;SHT31;55512;50.102;19.958;2023-09-19T00:35:20;20.83;61.85
68511;SHT31;55512;50.102;19.958;2023-09-19T00:37:49;20.83;61.82
68511;SHT31;55512;50.102;19.958;2023-09-19T00:40:16;20.83;61.91
68511;SHT31;55512;50.102;19.958;2023-09-19T00:42:46;20.82;61.92
68511;SHT31;55512;50.102;19.958;2023-09-19T00:45:14;20.83;62.00
68511;SHT31;55512;50.102;19.958;2023-09-19T00:47:43;20.83;61.98
68511;SHT31;55512;50.102;19.958;2023-09-19T00:50:11;20.83;61.99
68511;SHT31;55512;50.102;19.958;2023-09-19T00:52:39;20.82;62.00
68511;SHT31;55512;50.102;19.958;2023-09-19T00:55:07;20.83;61.95
68511;SHT31;55512;50.102;19.958;2023-09-19T00:57:36;20.85;61.95
68511;SHT31;55512;50.102;19.958;2023-09-19T01:00:04;20.85;61.95
68511;SHT31;55512;50.102;19.958;2023-09-19T01:02:32;20.85;61.99
68511;SHT31;55512;50.102;19.958;2023-09-19T01:04:58;20.85;62.17
68511;SHT31;55512;50.102;19.958;2023-09-19T01:07:29;20.83;62.38
68511;SHT31;55512;50.102;19.958;2023-09-19T01:09:58;20.84;62.42
68511;SHT31;55512;50.102;19.958;2023-09-19T01:20:57;20.87;63.44
68511;SHT31;55512;50.102;19.958;2023-09-19T01:30:14;20.77;64.86
68511;SHT31;55512;50.102;19.958;2023-09-19T01:32:47;20.76;64.99
68511;SHT31;55512;50.102;19.958;2023-09-19T01:35:17;20.73;65.17
68511;SHT31;55512;50.102;19.958;2023-09-19T01:37:43;20.70;65.28
68511;SHT31;55512;50.102;19.958;2023-09-19T01:40:10;20.71;65.38
68511;SHT31;55512;50.102;19.958;2023-09-19T01:42:52;20.71;65.65
68511;SHT31;55512;50.102;19.958;2023-09-19T01:45:42;20.71;65.97
68511;SHT31;55512;50.102;19.958;2023-09-19T01:48:38;20.71;66.21
68511;SHT31;55512;50.102;19.958;2023-09-19T01:51:14;20.70;66.28
68511;SHT31;55512;50.102;19.958;2023-09-19T01:54:03;20.65;66.71
68511;SHT31;55512;50.102;19.958;2023-09-19T01:56:40;20.62;66.97
68511;SHT31;55512;50.102;19.958;2023-09-19T01:59:21;20.60;67.20
68511;SHT31;55512;50.102;19.958;2023-09-19T02:01:55;20.58;67.39
68511;SHT31;55512;50.102;19.958;2023-09-19T02:04:22;20.56;67.58
68511;SHT31;55512;50.102;19.958;2023-09-19T02:06:48;20.51;67.77
68511;SHT31;55512;50.102;19.958;2023-09-19T02:09:16;20.47;68.01
68511;SHT31;55512;50.102;19.958;2023-09-19T02:11:42;20.43;68.21
68511;SHT31;55512;50.102;19.958;2023-09-19T02:14:07;20.40;68.39
68511;SHT31;55512;50.102;19.958;2023-09-19T02:16:33;20.39;68.49
68511;SHT31;55512;50.102;19.958;2023-09-19T02:19:00;20.40;68.67
68511;SHT31;55512;50.102;19.958;2023-09-19T02:21:25;20.39;68.85
68511;SHT31;55512;50.102;19.958;2023-09-19T02:23:55;20.39;68.96
68511;SHT31;55512;50.102;19.958;2023-09-19T02:26:21;20.39;69.07
68511;SHT31;55512;50.102;19.958;2023-09-19T02:28:49;20.40;69.20
68511;SHT31;55512;50.102;19.958;2023-09-19T02:31:15;20.40;69.30
68511;SHT31;55512;50.102;19.958;2023-09-19T02:33:41;20.40;69.29
68511;SHT31;55512;50.102;19.958;2023-09-19T02:36:07;20.39;69.47
68511;SHT31;55512;50.102;19.958;2023-09-19T02:38:33;20.38;69.64
68511;SHT31;55512;50.102;19.958;2023-09-19T02:40:59;20.37;69.81
68511;SHT31;55512;50.102;19.958;2023-09-19T02:43:25;20.34;70.03
68511;SHT31;55512;50.102;19.958;2023-09-19T02:45:50;20.33;70.13
68511;SHT31;55512;50.102;19.958;2023-09-19T02:48:20;20.33;70.26
68511;SHT31;55512;50.102;19.958;2023-09-19T02:50:46;20.30;70.46
68511;SHT31;55512;50.102;19.958;2023-09-19T02:53:15;20.30;70.60
68511;SHT31;55512;50.102;19.958;2023-09-19T02:55:40;20.30;70.78
68511;SHT31;55512;50.102;19.958;2023-09-19T02:58:07;20.31;70.91
68511;SHT31;55512;50.102;19.958;2023-09-19T03:00:36;20.31;70.99
68511;SHT31;55512;50.102;19.958;2023-09-19T03:03:02;20.32;70.96
68511;SHT31;55512;50.102;19.958;2023-09-19T03:05:28;20.32;71.00
68511;SHT31;55512;50.102;19.958;2023-09-19T03:07:56;20.31;71.09
68511;SHT31;55512;50.102;19.958;2023-09-19T03:10:22;20.30;71.24
68511;SHT31;55512;50.102;19.958;2023-09-19T03:12:49;20.29;71.29
68511;SHT31;55512;50.102;19.958;2023-09-19T03:15:15;20.27;71.35
68511;SHT31;55512;50.102;19.958;2023-09-19T03:17:43;20.27;71.43
68511;SHT31;55512;50.102;19.958;2023-09-19T03:20:13;20.28;71.52
68511;SHT31;55512;50.102;19.958;2023-09-19T03:22:46;20.25;71.75
68511;SHT31;55512;50.102;19.958;2023-09-19T03:25:11;20.20;71.79
68511;SHT31;55512;50.102;19.958;2023-09-19T03:27:40;20.20;71.80
68511;SHT31;55512;50.102;19.958;2023-09-19T03:30:06;20.18;71.80
68511;SHT31;55512;50.102;19.958;2023-09-19T03:32:37;20.19;71.89
68511;SHT31;55512;50.102;19.958;2023-09-19T03:35:14;20.19;71.98
68511;SHT31;55512;50.102;19.958;2023-09-19T03:37:42;20.19;72.14
68511;SHT31;55512;50.102;19.958;2023-09-19T03:40:09;20.20;72.20
68511;SHT31;55512;50.102;19.958;2023-09-19T03:42:39;20.22;72.20
68511;SHT31;55512;50.102;19.958;2023-09-19T03:45:07;20.22;72.29
68511;SHT31;55512;50.102;19.958;2023-09-19T03:47:37;20.24;72.41
68511;SHT31;55512;50.102;19.958;2023-09-19T03:50:04;20.24;72.50
68511;SHT31;55512;50.102;19.958;2023-09-19T03:52:35;20.23;72.62
68511;SHT31;55512;50.102;19.958;2023-09-19T03:55:01;20.23;72.65
68511;SHT31;55512;50.102;19.958;2023-09-19T03:57:29;20.23;72.71
68511;SHT31;55512;50.102;19.958;2023-09-19T03:59:55;20.22;72.79
68511;SHT31;55512;50.102;19.958;2023-09-19T04:02:21;20.23;72.80
68511;SHT31;55512;50.102;19.958;2023-09-19T04:04:49;20.25;72.73
68511;SHT31;55512;50.102;19.958;2023-09-19T04:07:17;20.25;72.70
68511;SHT31;55512;50.102;19.958;2023-09-19T04:09:44;20.26;72.75
68511;SHT31;55512;50.102;19.958;2023-09-19T04:12:10;20.25;72.90
68511;SHT31;55512;50.102;19.958;2023-09-19T04:14:37;20.24;72.93
68511;SHT31;55512;50.102;19.958;2023-09-19T04:17:03;20.25;72.95
68511;SHT31;55512;50.102;19.958;2023-09-19T04:19:30;20.28;72.89
68511;SHT31;55512;50.102;19.958;2023-09-19T04:21:55;20.27;72.96
68511;SHT31;55512;50.102;19.958;2023-09-19T04:24:21;20.27;73.00
68511;SHT31;55512;50.102;19.958;2023-09-19T04:26:46;20.26;73.07
68511;SHT31;55512;50.102;19.958;2023-09-19T04:29:12;20.25;73.15
68511;SHT31;55512;50.102;19.958;2023-09-19T04:31:39;20.25;73.24
68511;SHT31;55512;50.102;19.958;2023-09-19T04:34:05;20.25;73.31
68511;SHT31;55512;50.102;19.958;2023-09-19T04:36:35;20.25;73.48
68511;SHT31;55512;50.102;19.958;2023-09-19T04:39:01;20.25;73.55
68511;SHT31;55512;50.102;19.958;2023-09-19T04:41:32;20.25;73.62
68511;SHT31;55512;50.102;19.958;2023-09-19T04:43:58;20.24;73.80
68511;SHT31;55512;50.102;19.958;2023-09-19T04:46:23;20.22;73.89
68511;SHT31;55512;50.102;19.958;2023-09-19T04:48:49;20.18;73.81
68511;SHT31;55512;50.102;19.958;2023-09-19T04:51:14;20.18;73.86
68511;SHT31;55512;50.102;19.958;2023-09-19T04:53:40;20.15;73.96
68511;SHT31;55512;50.102;19.958;2023-09-19T04:56:06;20.13;73.96
68511;SHT31;55512;50.102;19.958;2023-09-19T04:58:33;20.09;74.05
68511;SHT31;55512;50.102;19.958;2023-09-19T05:00:59;20.03;74.48
68511;SHT31;55512;50.102;19.958;2023-09-19T05:03:24;19.96;74.76
68511;SHT31;55512;50.102;19.958;2023-09-19T05:05:50;19.90;74.95
68511;SHT31;55512;50.102;19.958;2023-09-19T05:08:15;19.86;75.23
68511;SHT31;55512;50.102;19.958;2023-09-19T05:10:41;19.84;75.18
68511;SHT31;55512;50.102;19.958;2023-09-19T05:13:06;19.83;75.19
68511;SHT31;55512;50.102;19.958;2023-09-19T05:15:35;19.83;75.21
68511;SHT31;55512;50.102;19.958;2023-09-19T05:18:01;19.84;75.11
68511;SHT31;55512;50.102;19.958;2023-09-19T05:20:28;19.89;74.93
68511;SHT31;55512;50.102;19.958;2023-09-19T05:23:03;19.93;74.76
68511;SHT31;55512;50.102;19.958;2023-09-19T05:25:33;19.97;74.72
68511;SHT31;55512;50.102;19.958;2023-09-19T05:28:07;20.01;74.76
68511;SHT31;55512;50.102;19.958;2023-09-19T05:30:36;20.05;74.70
68511;SHT31;55512;50.102;19.958;2023-09-19T05:33:03;20.09;74.70
68511;SHT31;55512;50.102;19.958;2023-09-19T05:35:30;20.14;74.69
68511;SHT31;55512;50.102;19.958;2023-09-19T05:37:56;20.16;74.66
68511;SHT31;55512;50.102;19.958;2023-09-19T05:40:23;20.19;74.54
68511;SHT31;55512;50.102;19.958;2023-09-19T05:42:49;20.20;74.62
68511;SHT31;55512;50.102;19.958;2023-09-19T05:45:18;20.17;74.80
68511;SHT31;55512;50.102;19.958;2023-09-19T05:47:47;20.14;74.87
68511;SHT31;55512;50.102;19.958;2023-09-19T05:50:15;20.14;74.93
68511;SHT31;55512;50.102;19.958;2023-09-19T05:52:41;20.14;74.88
68511;SHT31;55512;50.102;19.958;2023-09-19T05:55:08;20.14;74.94
68511;SHT31;55512;50.102;19.958;2023-09-19T05:57:34;20.13;75.07
68511;SHT31;55512;50.102;19.958;2023-09-19T06:00:00;20.13;75.11
68511;SHT31;55512;50.102;19.958;2023-09-19T06:02:25;20.12;75.23
68511;SHT31;55512;50.102;19.958;2023-09-19T06:04:55;20.11;75.37
68511;SHT31;55512;50.102;19.958;2023-09-19T06:07:21;20.11;75.45
68511;SHT31;55512;50.102;19.958;2023-09-19T06:09:51;20.12;75.47
68511;SHT31;55512;50.102;19.958;2023-09-19T06:12:18;20.12;75.55
68511;SHT31;55512;50.102;19.958;2023-09-19T06:14:44;20.11;75.67
68511;SHT31;55512;50.102;19.958;2023-09-19T06:17:09;20.10;75.79
68511;SHT31;55512;50.102;19.958;2023-09-19T06:19:35;20.10;75.86
68511;SHT31;55512;50.102;19.958;2023-09-19T06:22:01;20.11;75.91
68511;SHT31;55512;50.102;19.958;2023-09-19T06:24:26;20.10;76.00
68511;SHT31;55512;50.102;19.958;2023-09-19T06:26:53;20.11;76.01
68511;SHT31;55512;50.102;19.958;2023-09-19T06:29:19;20.10;76.00
68511;SHT31;55512;50.102;19.958;2023-09-19T06:31:46;20.11;76.05
68511;SHT31;55512;50.102;19.958;2023-09-19T06:34:12;20.09;76.13
68511;SHT31;55512;50.102;19.958;2023-09-19T06:36:40;20.10;76.20
68511;SHT31;55512;50.102;19.958;2023-09-19T06:39:06;20.10;76.26
68511;SHT31;55512;50.102;19.958;2023-09-19T06:41:35;20.10;76.30
68511;SHT31;55512;50.102;19.958;2023-09-19T06:44:03;20.13;76.27
68511;SHT31;55512;50.102;19.958;2023-09-19T06:46:30;20.14;76.29
68511;SHT31;55512;50.102;19.958;2023-09-19T06:48:59;20.13;76.30
68511;SHT31;55512;50.102;19.958;2023-09-19T06:51:26;20.14;76.29
68511;SHT31;55512;50.102;19.958;2023-09-19T06:53:51;20.17;76.30
68511;SHT31;55512;50.102;19.958;2023-09-19T06:56:19;20.17;76.26
68511;SHT31;55512;50.102;19.958;2023-09-19T06:58:49;20.18;76.14
68511;SHT31;55512;50.102;19.958;2023-09-19T07:01:15;20.18;76.21
68511;SHT31;55512;50.102;19.958;2023-09-19T07:03:40;20.15;76.30
68511;SHT31;55512;50.102;19.958;2023-09-19T07:06:05;20.14;76.39
68511;SHT31;55512;50.102;19.958;2023-09-19T07:08:31;20.17;76.38
68511;SHT31;55512;50.102;19.958;2023-09-19T07:10:56;20.14;76.48
68511;SHT31;55512;50.102;19.958;2023-09-19T07:13:22;20.14;76.51
68511;SHT31;55512;50.102;19.958;2023-09-19T07:15:47;20.15;76.58
68511;SHT31;55512;50.102;19.958;2023-09-19T07:18:15;20.15;76.65
68511;SHT31;55512;50.102;19.958;2023-09-19T07:20:42;20.16;76.72
68511;SHT31;55512;50.102;19.958;2023-09-19T07:23:17;20.18;76.70
68511;SHT31;55512;50.102;19.958;2023-09-19T07:25:46;20.21;76.70
68511;SHT31;55512;50.102;19.958;2023-09-19T07:28:12;20.24;76.69
68511;SHT31;55512;50.102;19.958;2023-09-19T07:30:38;20.26;76.62
68511;SHT31;55512;50.102;19.958;2023-09-19T07:33:04;20.29;76.49
68511;SHT31;55512;50.102;19.958;2023-09-19T07:35:30;20.33;76.37
68511;SHT31;55512;50.102;19.958;2023-09-19T07:37:57;20.35;76.30
68511;SHT31;55512;50.102;19.958;2023-09-19T07:40:23;20.37;76.21
68511;SHT31;55512;50.102;19.958;2023-09-19T07:42:57;20.36;76.22
68511;SHT31;55512;50.102;19.958;2023-09-19T07:45:26;20.33;76.29
68511;SHT31;55512;50.102;19.958;2023-09-19T07:47:55;20.32;76.25
68511;SHT31;55512;50.102;19.958;2023-09-19T07:50:21;20.30;76.26
68511;SHT31;55512;50.102;19.958;2023-09-19T07:52:47;20.30;76.35
68511;SHT31;55512;50.102;19.958;2023-09-19T07:55:17;20.30;76.36
68511;SHT31;55512;50.102;19.958;2023-09-19T07:57:44;20.32;76.30
68511;SHT31;55512;50.102;19.958;2023-09-19T08:00:11;20.32;76.35
68511;SHT31;55512;50.102;19.958;2023-09-19T08:02:37;20.30;76.41
68511;SHT31;55512;50.102;19.958;2023-09-19T08:05:05;20.31;76.47
68511;SHT31;55512;50.102;19.958;2023-09-19T08:07:34;20.30;76.63
68511;SHT31;55512;50.102;19.958;2023-09-19T08:10:01;20.25;76.92
68511;SHT31;55512;50.102;19.958;2023-09-19T08:12:28;20.18;77.03
68511;SHT31;55512;50.102;19.958;2023-09-19T08:14:55;20.15;77.13
68511;SHT31;55512;50.102;19.958;2023-09-19T08:17:21;20.14;77.11
68511;SHT31;55512;50.102;19.958;2023-09-19T08:19:48;20.14;77.19
68511;SHT31;55512;50.102;19.958;2023-09-19T08:22:17;20.08;77.57
68511;SHT31;55512;50.102;19.958;2023-09-19T08:24:44;20.03;77.80
68511;SHT31;55512;50.102;19.958;2023-09-19T08:27:11;19.91;78.22
68511;SHT31;55512;50.102;19.958;2023-09-19T08:29:37;19.84;78.14
68511;SHT31;55512;50.102;19.958;2023-09-19T08:32:03;19.79;78.18
68511;SHT31;55512;50.102;19.958;2023-09-19T08:34:29;19.70;78.33
68511;SHT31;55512;50.102;19.958;2023-09-19T08:36:57;19.63;78.40
68511;SHT31;55512;50.102;19.958;2023-09-19T08:39:23;19.58;78.73
68511;SHT31;55512;50.102;19.958;2023-09-19T08:42:00;19.51;78.79
68511;SHT31;55512;50.102;19.958;2023-09-19T08:44:27;19.48;78.82
68511;SHT31;55512;50.102;19.958;2023-09-19T08:47:18;19.45;78.96
68511;SHT31;55512;50.102;19.958;2023-09-19T08:50:30;19.43;78.88
68511;SHT31;55512;50.102;19.958;2023-09-19T08:52:56;19.43;78.98
68511;SHT31;55512;50.102;19.958;2023-09-19T08:55:29;19.40;79.11
68511;SHT31;55512;50.102;19.958;2023-09-19T08:57:59;19.40;79.15
68511;SHT31;55512;50.102;19.958;2023-09-19T09:00:28;19.38;79.25
68511;SHT31;55512;50.102;19.958;2023-09-19T09:02:55;19.34;79.33
68511;SHT31;55512;50.102;19.958;2023-09-19T09:05:23;19.33;79.48
68511;SHT31;55512;50.102;19.958;2023-09-19T09:07:51;19.32;79.51
68511;SHT31;55512;50.102;19.958;2023-09-19T09:10:19;19.31;79.58
68511;SHT31;55512;50.102;19.958;2023-09-19T09:12:48;19.32;79.52
68511;SHT31;55512;50.102;19.958;2023-09-19T09:15:17;19.32;79.53
68511;SHT31;55512;50.102;19.958;2023-09-19T09:17:46;19.31;79.75
68511;SHT31;55512;50.102;19.958;2023-09-19T09:20:17;19.28;79.80
68511;SHT31;55512;50.102;19.958;2023-09-19T09:22:50;19.28;79.86
68511;SHT31;55512;50.102;19.958;2023-09-19T09:25:21;19.29;79.89
68511;SHT31;55512;50.102;19.958;2023-09-19T09:27:59;19.30;79.97
68511;SHT31;55512;50.102;19.958;2023-09-19T09:30:36;19.32;80.09
68511;SHT31;55512;50.102;19.958;2023-09-19T09:33:08;19.34;79.99
68511;SHT31;55512;50.102;19.958;2023-09-19T09:35:37;19.36;79.95
68511;SHT31;55512;50.102;19.958;2023-09-19T09:38:23;19.41;79.91
68511;SHT31;55512;50.102;19.958;2023-09-19T09:40:58;19.44;79.83
68511;SHT31;55512;50.102;19.958;2023-09-19T09:43:37;19.48;79.75
68511;SHT31;55512;50.102;19.958;2023-09-19T09:46:09;19.53;79.70
68511;SHT31;55512;50.102;19.958;2023-09-19T09:49:00;19.56;79.66
68511;SHT31;55512;50.102;19.958;2023-09-19T09:51:49;19.60;79.52
68511;SHT31;55512;50.102;19.958;2023-09-19T09:54:30;19.64;79.50
68511;SHT31;55512;50.102;19.958;2023-09-19T09:57:02;19.68;79.38
68511;SHT31;55512;50.102;19.958;2023-09-19T10:02:17;19.78;79.20
68511;SHT31;55512;50.102;19.958;2023-09-19T10:04:54;19.84;79.05
68511;SHT31;55512;50.102;19.958;2023-09-19T10:07:30;19.87;78.95
68511;SHT31;55512;50.102;19.958;2023-09-19T10:10:14;19.91;78.82
68511;SHT31;55512;50.102;19.958;2023-09-19T10:13:19;19.92;78.68
68511;SHT31;55512;50.102;19.958;2023-09-19T10:15:51;19.94;78.61
68511;SHT31;55512;50.102;19.958;2023-09-19T10:18:21;19.95;78.50
68511;SHT31;55512;50.102;19.958;2023-09-19T10:20:51;19.95;78.46
68511;SHT31;55512;50.102;19.958;2023-09-19T10:23:18;19.96;78.38
68511;SHT31;55512;50.102;19.958;2023-09-19T10:25:49;19.97;78.30
68511;SHT31;55512;50.102;19.958;2023-09-19T10:28:16;19.93;78.23
68511;SHT31;55512;50.102;19.958;2023-09-19T10:30:47;19.88;78.20
68511;SHT31;55512;50.102;19.958;2023-09-19T10:33:19;19.85;78.19
68511;SHT31;55512;50.102;19.958;2023-09-19T10:35:52;19.82;78.18
68511;SHT31;55512;50.102;19.958;2023-09-19T10:38:22;19.82;78.11
68511;SHT31;55512;50.102;19.958;2023-09-19T10:40:51;19.80;78.00
68511;SHT31;55512;50.102;19.958;2023-09-19T10:43:30;19.79;77.95
68511;SHT31;55512;50.102;19.958;2023-09-19T10:46:01;19.79;78.01
68511;SHT31;55512;50.102;19.958;2023-09-19T10:48:32;19.82;78.02
68511;SHT31;55512;50.102;19.958;2023-09-19T10:51:01;19.86;78.07
68511;SHT31;55512;50.102;19.958;2023-09-19T10:53:41;19.89;78.01
68511;SHT31;55512;50.102;19.958;2023-09-19T10:56:24;19.91;78.04
68511;SHT31;55512;50.102;19.958;2023-09-19T10:59:07;19.90;78.05
68511;SHT31;55512;50.102;19.958;2023-09-19T11:02:36;19.89;78.13
68511;SHT31;55512;50.102;19.958;2023-09-19T11:04:42;19.92;78.20
68511;SHT31;55512;50.102;19.958;2023-09-19T11:07:14;19.97;78.09
68511;SHT31;55512;50.102;19.958;2023-09-19T11:09:50;20.00;78.03
68511;SHT31;55512;50.102;19.958;2023-09-19T11:14:59;20.00;78.07
68511;SHT31;55512;50.102;19.958;2023-09-19T11:20:22;19.97;78.10
68511;SHT31;55512;50.102;19.958;2023-09-19T11:30:49;20.00;78.00
68511;SHT31;55512;50.102;19.958;2023-09-19T11:33:29;20.00;78.02
68511;SHT31;55512;50.102;19.958;2023-09-19T11:36:09;20.00;78.07
68511;SHT31;55512;50.102;19.958;2023-09-19T11:43:45;20.00;78.00
68511;SHT31;55512;50.102;19.958;2023-09-19T11:46:15;20.00;77.93
68511;SHT31;55512;50.102;19.958;2023-09-19T11:48:47;20.03;77.85
68511;SHT31;55512;50.102;19.958;2023-09-19T11:51:21;20.04;77.80
68511;SHT31;55512;50.102;19.958;2023-09-19T11:53:52;20.04;77.80
68511;SHT31;55512;50.102;19.958;2023-09-19T11:56:21;20.05;77.71
68511;SHT31;55512;50.102;19.958;2023-09-19T11:58:51;20.03;77.71
68511;SHT31;55512;50.102;19.958;2023-09-19T12:01:23;20.05;77.68
68511;SHT31;55512;50.102;19.958;2023-09-19T12:03:58;20.05;77.61
68511;SHT31;55512;50.102;19.958;2023-09-19T12:06:25;20.05;77.60
68511;SHT31;55512;50.102;19.958;2023-09-19T12:08:54;20.07;77.51
68511;SHT31;55512;50.102;19.958;2023-09-19T12:11:22;20.09;77.48
68511;SHT31;55512;50.102;19.958;2023-09-19T12:13:48;20.08;77.50
68511;SHT31;55512;50.102;19.958;2023-09-19T12:16:21;20.07;77.50
68511;SHT31;55512;50.102;19.958;2023-09-19T12:18:47;20.07;77.42
68511;SHT31;55512;50.102;19.958;2023-09-19T12:26:38;20.07;77.42
68511;SHT31;55512;50.102;19.958;2023-09-19T12:29:10;20.08;77.40
68511;SHT31;55512;50.102;19.958;2023-09-19T12:31:47;20.08;77.40
68511;SHT31;55512;50.102;19.958;2023-09-19T12:34:28;20.08;77.43
68511;SHT31;55512;50.102;19.958;2023-09-19T12:37:14;20.05;77.53
68511;SHT31;55512;50.102;19.958;2023-09-19T12:39:45;20.04;77.68
68511;SHT31;55512;50.102;19.958;2023-09-19T12:42:20;20.04;77.80
68511;SHT31;55512;50.102;19.958;2023-09-19T12:44:54;20.05;77.80
68511;SHT31;55512;50.102;19.958;2023-09-19T12:47:22;20.09;77.80
68511;SHT31;55512;50.102;19.958;2023-09-19T12:50:05;20.11;77.79
68511;SHT31;55512;50.102;19.958;2023-09-19T12:52:39;20.13;77.86
68511;SHT31;55512;50.102;19.958;2023-09-19T12:55:18;20.15;77.88
68511;SHT31;55512;50.102;19.958;2023-09-19T13:00:42;20.28;77.75
68511;SHT31;55512;50.102;19.958;2023-09-19T13:03:17;20.32;77.70
68511;SHT31;55512;50.102;19.958;2023-09-19T13:05:51;20.35;77.70
68511;SHT31;55512;50.102;19.958;2023-09-19T13:08:23;20.41;77.70
68511;SHT31;55512;50.102;19.958;2023-09-19T13:11:11;20.44;77.70
68511;SHT31;55512;50.102;19.958;2023-09-19T13:16:18;20.46;77.80
68511;SHT31;55512;50.102;19.958;2023-09-19T13:21:26;20.50;77.65
68511;SHT31;55512;50.102;19.958;2023-09-19T13:24:23;20.56;77.52
68511;SHT31;55512;50.102;19.958;2023-09-19T13:26:54;20.58;77.41
68511;SHT31;55512;50.102;19.958;2023-09-19T13:29:21;20.64;77.27
68511;SHT31;55512;50.102;19.958;2023-09-19T13:31:48;20.69;77.09
68511;SHT31;55512;50.102;19.958;2023-09-19T13:34:15;20.72;76.81
68511;SHT31;55512;50.102;19.958;2023-09-19T13:36:42;20.70;76.66
68511;SHT31;55512;50.102;19.958;2023-09-19T13:39:08;20.69;76.56
68511;SHT31;55512;50.102;19.958;2023-09-19T13:41:34;20.67;76.46
68511;SHT31;55512;50.102;19.958;2023-09-19T13:44:02;20.63;76.40
68511;SHT31;55512;50.102;19.958;2023-09-19T13:46:29;20.61;76.40
68511;SHT31;55512;50.102;19.958;2023-09-19T13:49:00;20.60;76.30
68511;SHT31;55512;50.102;19.958;2023-09-19T13:51:28;20.63;76.28
68511;SHT31;55512;50.102;19.958;2023-09-19T13:53:56;20.68;76.11
68511;SHT31;55512;50.102;19.958;2023-09-19T13:56:21;20.70;76.10
68511;SHT31;55512;50.102;19.958;2023-09-19T13:58:47;20.70;76.03
68511;SHT31;55512;50.102;19.958;2023-09-19T14:01:13;20.66;76.02
68511;SHT31;55512;50.102;19.958;2023-09-19T14:03:39;20.64;76.09
68511;SHT31;55512;50.102;19.958;2023-09-19T14:06:05;20.68;76.08
68511;SHT31;55512;50.102;19.958;2023-09-19T14:08:31;20.72;76.00
68511;SHT31;55512;50.102;19.958;2023-09-19T14:10:58;20.73;75.98
68511;SHT31;55512;50.102;19.958;2023-09-19T14:13:23;20.76;75.89
68511;SHT31;55512;50.102;19.958;2023-09-19T14:15:50;20.83;75.85
68511;SHT31;55512;50.102;19.958;2023-09-19T14:18:16;20.88;75.80
68511;SHT31;55512;50.102;19.958;2023-09-19T14:20:41;20.95;75.73
68511;SHT31;55512;50.102;19.958;2023-09-19T14:23:07;21.07;75.59
68511;SHT31;55512;50.102;19.958;2023-09-19T14:25:36;21.24;75.40
68511;SHT31;55512;50.102;19.958;2023-09-19T14:28:03;21.50;74.93
68511;SHT31;55512;50.102;19.958;2023-09-19T14:30:29;21.60;74.61
68511;SHT31;55512;50.102;19.958;2023-09-19T14:32:56;21.74;74.37
68511;SHT31;55512;50.102;19.958;2023-09-19T14:35:22;21.90;73.96
68511;SHT31;55512;50.102;19.958;2023-09-19T14:37:48;22.06;73.64
68511;SHT31;55512;50.102;19.958;2023-09-19T14:40:14;22.37;73.26
68511;SHT31;55512;50.102;19.958;2023-09-19T14:42:42;22.67;72.69
68511;SHT31;55512;50.102;19.958;2023-09-19T14:45:10;22.93;72.18
68511;SHT31;55512;50.102;19.958;2023-09-19T14:47:36;22.91;71.51
68511;SHT31;55512;50.102;19.958;2023-09-19T14:50:03;22.72;70.76
68511;SHT31;55512;50.102;19.958;2023-09-19T14:52:32;22.52;70.68
68511;SHT31;55512;50.102;19.958;2023-09-19T14:54:59;22.43;70.79
68511;SHT31;55512;50.102;19.958;2023-09-19T14:57:25;22.48;70.73
68511;SHT31;55512;50.102;19.958;2023-09-19T14:59:51;22.77;70.32
68511;SHT31;55512;50.102;19.958;2023-09-19T15:02:17;24.02;68.59
68511;SHT31;55512;50.102;19.958;2023-09-19T15:04:43;25.99;65.31
68511;SHT31;55512;50.102;19.958;2023-09-19T15:07:12;27.54;62.17
68511;SHT31;55512;50.102;19.958;2023-09-19T15:09:40;28.25;60.65
68511;SHT31;55512;50.102;19.958;2023-09-19T15:12:07;28.23;59.67
68511;SHT31;55512;50.102;19.958;2023-09-19T15:14:32;28.02;59.57
68511;SHT31;55512;50.102;19.958;2023-09-19T15:16:58;27.44;59.00
68511;SHT31;55512;50.102;19.958;2023-09-19T15:19:23;26.82;59.64
68511;SHT31;55512;50.102;19.958;2023-09-19T15:21:49;26.76;59.45
68511;SHT31;55512;50.102;19.958;2023-09-19T15:24:14;26.99;58.37
68511;SHT31;55512;50.102;19.958;2023-09-19T15:26:41;27.62;57.71
68511;SHT31;55512;50.102;19.958;2023-09-19T15:29:09;27.99;56.94
68511;SHT31;55512;50.102;19.958;2023-09-19T15:31:35;28.19;55.52
68511;SHT31;55512;50.102;19.958;2023-09-19T15:34:01;27.51;56.32
68511;SHT31;55512;50.102;19.958;2023-09-19T15:36:33;26.93;57.08
68511;SHT31;55512;50.102;19.958;2023-09-19T15:39:02;26.44;57.82
68511;SHT31;55512;50.102;19.958;2023-09-19T15:41:36;26.11;58.33
68511;SHT31;55512;50.102;19.958;2023-09-19T15:44:13;25.71;58.81
68511;SHT31;55512;50.102;19.958;2023-09-19T15:46:41;25.41;59.39
68511;SHT31;55512;50.102;19.958;2023-09-19T15:49:07;25.12;59.78
68511;SHT31;55512;50.102;19.958;2023-09-19T15:51:34;24.81;60.40
68511;SHT31;55512;50.102;19.958;2023-09-19T15:54:23;24.53;60.97
68511;SHT31;55512;50.102;19.958;2023-09-19T15:56:50;24.30;61.47
68511;SHT31;55512;50.102;19.958;2023-09-19T15:59:16;24.07;61.81
68511;SHT31;55512;50.102;19.958;2023-09-19T16:01:42;23.85;62.33
68511;SHT31;55512;50.102;19.958;2023-09-19T16:04:09;23.64;62.74
68511;SHT31;55512;50.102;19.958;2023-09-19T16:06:36;23.41;63.20
68511;SHT31;55512;50.102;19.958;2023-09-19T16:09:03;23.22;63.67
68511;SHT31;55512;50.102;19.958;2023-09-19T16:11:31;23.08;64.10
68511;SHT31;55512;50.102;19.958;2023-09-19T16:13:58;22.95;64.55
68511;SHT31;55512;50.102;19.958;2023-09-19T16:16:26;22.84;64.92
68511;SHT31;55512;50.102;19.958;2023-09-19T16:18:55;22.74;65.20